sensor_id;sensor_type;location;lat;lon;timestamp;temperature;humidity
23051;DHT22;11693;51.358;12.410;2022-10-16T15:05:42;19.80;99.90
23051;DHT22;11693;51.358;12.410;2022-10-16T15:08:08;19.80;99.90
23051;DHT22;11693;51.358;12.410;2022-10-16T15:10:39;20.50;99.90
23051;DHT22;11693;51.358;12.410;2022-10-16T15:13:05;21.30;99.90
23051;DHT22;11693;51.358;12.410;2022-10-16T15:15:45;21.90;99.90
23051;DHT22;11693;51.358;12.410;2022-10-16T15:18:11;22.50;99.90
23051;DHT22;11693;51.358;12.410;2022-10-16T15:20:38;22.90;99.90
23051;DHT22;11693;51.358;12.410;2022-10-16T15:23:09;23.10;99.90
23051;DHT22;11693;51.358;12.410;2022-10-16T15:25:45;23.30;99.90
23051;DHT22;11693;51.358;12.410;2022-10-16T15:28:12;23.40;99.90
23051;DHT22;11693;51.358;12.410;2022-10-16T15:30:38;23.50;99.90
23051;DHT22;11693;51.358;12.410;2022-10-16T15:33:08;23.60;99.90
23051;DHT22;11693;51.358;12.410;2022-10-16T15:35:35;23.60;99.90
23051;DHT22;11693;51.358;12.410;2022-10-16T15:38:01;23.60;99.90
23051;DHT22;11693;51.358;12.410;2022-10-16T15:40:26;23.70;99.90
23051;DHT22;11693;51.358;12.410;2022-10-16T15:42:52;23.80;99.90
23051;DHT22;11693;51.358;12.410;2022-10-16T15:45:18;23.90;99.90
23051;DHT22;11693;51.358;12.410;2022-10-16T15:47:45;24.00;99.90
23051;DHT22;11693;51.358;12.410;2022-10-16T15:50:12;24.10;99.90
23051;DHT22;11693;51.358;12.410;2022-10-16T15:52:38;24.20;99.90
23051;DHT22;11693;51.358;12.410;2022-10-16T15:55:08;24.30;99.90
23051;DHT22;11693;51.358;12.410;2022-10-16T15:57:34;24.20;99.90
23051;DHT22;11693;51.358;12.410;2022-10-16T16:00:00;24.20;99.90
23051;DHT22;11693;51.358;12.410;2022-10-16T16:02:26;24.30;99.90
23051;DHT22;11693;51.358;12.410;2022-10-16T16:04:51;24.30;99.90
23051;DHT22;11693;51.358;12.410;2022-10-16T16:07:17;24.30;99.90
23051;DHT22;11693;51.358;12.410;2022-10-16T16:09:45;24.30;99.90
23051;DHT22;11693;51.358;12.410;2022-10-16T16:12:11;24.20;99.90
23051;DHT22;11693;51.358;12.410;2022-10-16T16:14:37;24.10;99.90
23051;DHT22;11693;51.358;12.410;2022-10-16T16:17:02;24.00;99.90
23051;DHT22;11693;51.358;12.410;2022-10-16T16:19:28;23.90;99.90
23051;DHT22;11693;51.358;12.410;2022-10-16T16:21:54;23.80;99.90
23051;DHT22;11693;51.358;12.410;2022-10-16T16:24:19;23.80;99.90
23051;DHT22;11693;51.358;12.410;2022-10-16T16:26:45;23.80;99.90
23051;DHT22;11693;51.358;12.410;2022-10-16T16:29:15;23.60;99.90
23051;DHT22;11693;51.358;12.410;2022-10-16T16:31:41;23.60;99.90
23051;DHT22;11693;51.358;12.410;2022-10-16T16:34:07;23.50;99.90
23051;DHT22;11693;51.358;12.410;2022-10-16T16:36:34;23.50;99.90
23051;DHT22;11693;51.358;12.410;2022-10-16T16:39:00;23.50;99.90
23051;DHT22;11693;51.358;12.410;2022-10-16T16:41:27;23.50;99.90
23051;DHT22;11693;51.358;12.410;2022-10-16T16:43:54;23.60;99.90
23051;DHT22;11693;51.358;12.410;2022-10-16T16:46:21;23.70;99.90
23051;DHT22;11693;51.358;12.410;2022-10-16T16:48:46;23.70;99.90
23051;DHT22;11693;51.358;12.410;2022-10-16T16:51:17;23.70;99.90
23051;DHT22;11693;51.358;12.410;2022-10-16T16:53:49;23.60;99.90
23051;DHT22;11693;51.358;12.410;2022-10-16T16:56:15;23.60;99.90
23051;DHT22;11693;51.358;12.410;2022-10-16T16:58:41;23.60;99.90
23051;DHT22;11693;51.358;12.410;2022-10-16T17:01:09;23.50;99.90
23051;DHT22;11693;51.358;12.410;2022-10-16T17:03:35;23.30;99.90
23051;DHT22;11693;51.358;12.410;2022-10-16T17:06:07;23.30;99.90
23051;DHT22;11693;51.358;12.410;2022-10-16T17:08:34;23.20;99.90
23051;DHT22;11693;51.358;12.410;2022-10-16T17:11:00;23.10;99.90
23051;DHT22;11693;51.358;12.410;2022-10-16T17:13:28;23.20;99.90
23051;DHT22;11693;51.358;12.410;2022-10-16T17:15:54;23.20;99.90
23051;DHT22;11693;51.358;12.410;2022-10-16T17:18:22;23.20;99.90
23051;DHT22;11693;51.358;12.410;2022-10-16T17:20:48;23.20;99.90
23051;DHT22;11693;51.358;12.410;2022-10-16T17:23:14;23.20;99.90
23051;DHT22;11693;51.358;12.410;2022-10-16T17:25:41;23.30;99.90
23051;DHT22;11693;51.358;12.410;2022-10-16T17:28:08;23.30;99.90
23051;DHT22;11693;51.358;12.410;2022-10-16T17:30:37;23.30;99.90
23051;DHT22;11693;51.358;12.410;2022-10-16T17:33:03;23.40;99.90
23051;DHT22;11693;51.358;12.410;2022-10-16T17:35:29;23.40;99.90
23051;DHT22;11693;51.358;12.410;2022-10-16T17:38:00;23.40;99.90
23051;DHT22;11693;51.358;12.410;2022-10-16T17:40:26;23.40;99.90
23051;DHT22;11693;51.358;12.410;2022-10-16T17:42:51;23.30;99.90
23051;DHT22;11693;51.358;12.410;2022-10-16T17:45:17;23.30;99.90
23051;DHT22;11693;51.358;12.410;2022-10-16T17:47:42;23.20;99.90
23051;DHT22;11693;51.358;12.410;2022-10-16T17:50:08;23.20;99.90
23051;DHT22;11693;51.358;12.410;2022-10-16T17:52:33;23.30;99.90
23051;DHT22;11693;51.358;12.410;2022-10-16T17:54:59;23.20;99.90
23051;DHT22;11693;51.358;12.410;2022-10-16T17:57:25;23.20;99.90
23051;DHT22;11693;51.358;12.410;2022-10-16T17:59:53;23.10;99.90
23051;DHT22;11693;51.358;12.410;2022-10-16T18:02:19;23.00;99.90
23051;DHT22;11693;51.358;12.410;2022-10-16T18:04:45;22.90;99.90
23051;DHT22;11693;51.358;12.410;2022-10-16T18:07:11;22.80;99.90
23051;DHT22;11693;51.358;12.410;2022-10-16T18:09:37;22.60;99.90
23051;DHT22;11693;51.358;12.410;2022-10-16T18:12:03;22.50;99.90
23051;DHT22;11693;51.358;12.410;2022-10-16T18:14:30;22.50;99.90
23051;DHT22;11693;51.358;12.410;2022-10-16T18:16:56;22.50;99.90
23051;DHT22;11693;51.358;12.410;2022-10-16T18:19:23;22.50;99.90
23051;DHT22;11693;51.358;12.410;2022-10-16T18:21:49;22.60;99.90
23051;DHT22;11693;51.358;12.410;2022-10-16T18:24:16;22.60;99.90
23051;DHT22;11693;51.358;12.410;2022-10-16T18:26:42;22.60;99.90
23051;DHT22;11693;51.358;12.410;2022-10-16T18:29:09;22.70;99.90
23051;DHT22;11693;51.358;12.410;2022-10-16T18:31:35;22.80;99.90
23051;DHT22;11693;51.358;12.410;2022-10-16T18:34:01;22.80;99.90
23051;DHT22;11693;51.358;12.410;2022-10-16T18:36:29;22.90;99.90
23051;DHT22;11693;51.358;12.410;2022-10-16T18:38:55;22.70;99.90
23051;DHT22;11693;51.358;12.410;2022-10-16T18:41:21;22.70;99.90
23051;DHT22;11693;51.358;12.410;2022-10-16T18:43:47;22.60;99.90
23051;DHT22;11693;51.358;12.410;2022-10-16T18:46:21;22.50;99.90
23051;DHT22;11693;51.358;12.410;2022-10-16T18:48:48;22.50;99.90
23051;DHT22;11693;51.358;12.410;2022-10-16T18:53:49;22.50;99.90
23051;DHT22;11693;51.358;12.410;2022-10-16T18:56:17;22.40;99.90
23051;DHT22;11693;51.358;12.410;2022-10-16T18:58:44;22.50;99.90
23051;DHT22;11693;51.358;12.410;2022-10-16T19:01:14;22.40;99.90
23051;DHT22;11693;51.358;12.410;2022-10-16T19:03:40;22.30;99.90
23051;DHT22;11693;51.358;12.410;2022-10-16T19:06:09;22.20;99.90
23051;DHT22;11693;51.358;12.410;2022-10-16T19:08:36;22.20;99.90
23051;DHT22;11693;51.358;12.410;2022-10-16T19:11:07;22.20;99.90
23051;DHT22;11693;51.358;12.410;2022-10-16T19:13:33;22.20;99.90
23051;DHT22;11693;51.358;12.410;2022-10-16T19:15:59;22.20;99.90
23051;DHT22;11693;51.358;12.410;2022-10-16T19:18:29;22.10;99.90
23051;DHT22;11693;51.358;12.410;2022-10-16T19:21:03;22.20;99.90
23051;DHT22;11693;51.358;12.410;2022-10-16T19:23:29;22.20;99.90
23051;DHT22;11693;51.358;12.410;2022-10-16T19:25:54;22.20;99.90
23051;DHT22;11693;51.358;12.410;2022-10-16T19:28:20;22.10;99.90
23051;DHT22;11693;51.358;12.410;2022-10-16T19:30:46;22.20;99.90
23051;DHT22;11693;51.358;12.410;2022-10-16T19:33:13;22.20;99.90
23051;DHT22;11693;51.358;12.410;2022-10-16T19:35:38;22.10;99.90
23051;DHT22;11693;51.358;12.410;2022-10-16T19:38:04;22.00;99.90
23051;DHT22;11693;51.358;12.410;2022-10-16T19:40:29;22.00;99.90
23051;DHT22;11693;51.358;12.410;2022-10-16T19:42:55;22.00;99.90
23051;DHT22;11693;51.358;12.410;2022-10-16T19:45:21;22.00;99.90
23051;DHT22;11693;51.358;12.410;2022-10-16T19:47:47;22.00;99.90
23051;DHT22;11693;51.358;12.410;2022-10-16T19:50:13;22.10;99.90
23051;DHT22;11693;51.358;12.410;2022-10-16T19:52:40;22.20;99.90
23051;DHT22;11693;51.358;12.410;2022-10-16T19:55:07;22.30;99.90
23051;DHT22;11693;51.358;12.410;2022-10-16T19:57:36;22.30;99.90
23051;DHT22;11693;51.358;12.410;2022-10-16T20:00:04;22.20;99.90
23051;DHT22;11693;51.358;12.410;2022-10-16T20:02:30;22.20;99.90
23051;DHT22;11693;51.358;12.410;2022-10-16T20:04:55;22.30;99.90
23051;DHT22;11693;51.358;12.410;2022-10-16T20:07:21;22.40;99.90
23051;DHT22;11693;51.358;12.410;2022-10-16T20:09:48;22.40;99.90
23051;DHT22;11693;51.358;12.410;2022-10-16T20:12:13;22.50;99.90
23051;DHT22;11693;51.358;12.410;2022-10-16T20:14:39;22.40;99.90
23051;DHT22;11693;51.358;12.410;2022-10-16T20:17:04;22.50;99.90
23051;DHT22;11693;51.358;12.410;2022-10-16T20:19:30;22.60;99.90
23051;DHT22;11693;51.358;12.410;2022-10-16T20:21:56;22.50;99.90
23051;DHT22;11693;51.358;12.410;2022-10-16T20:24:21;22.50;99.90
23051;DHT22;11693;51.358;12.410;2022-10-16T20:26:48;22.40;99.90
23051;DHT22;11693;51.358;12.410;2022-10-16T20:29:13;22.40;99.90
23051;DHT22;11693;51.358;12.410;2022-10-16T20:31:39;22.30;99.90
23051;DHT22;11693;51.358;12.410;2022-10-16T20:34:08;22.30;99.90
23051;DHT22;11693;51.358;12.410;2022-10-16T20:36:35;22.30;99.90
23051;DHT22;11693;51.358;12.410;2022-10-16T20:39:01;22.30;99.90
23051;DHT22;11693;51.358;12.410;2022-10-16T20:41:27;22.30;99.90
23051;DHT22;11693;51.358;12.410;2022-10-16T20:43:54;22.20;99.90
23051;DHT22;11693;51.358;12.410;2022-10-16T20:46:22;22.10;99.90
23051;DHT22;11693;51.358;12.410;2022-10-16T20:48:50;22.00;99.90
23051;DHT22;11693;51.358;12.410;2022-10-16T20:51:20;21.90;99.90
23051;DHT22;11693;51.358;12.410;2022-10-16T20:53:50;21.80;99.90
23051;DHT22;11693;51.358;12.410;2022-10-16T20:56:16;21.80;99.90
23051;DHT22;11693;51.358;12.410;2022-10-16T20:58:43;21.90;99.90
23051;DHT22;11693;51.358;12.410;2022-10-16T21:01:11;22.00;99.90
23051;DHT22;11693;51.358;12.410;2022-10-16T21:03:37;21.90;99.90
23051;DHT22;11693;51.358;12.410;2022-10-16T21:06:05;21.80;99.90
23051;DHT22;11693;51.358;12.410;2022-10-16T21:08:37;21.80;99.90
23051;DHT22;11693;51.358;12.410;2022-10-16T21:11:18;21.80;99.90
23051;DHT22;11693;51.358;12.410;2022-10-16T21:13:45;21.80;99.90
23051;DHT22;11693;51.358;12.410;2022-10-16T21:16:11;21.80;99.90
23051;DHT22;11693;51.358;12.410;2022-10-16T21:18:37;21.80;99.90
23051;DHT22;11693;51.358;12.410;2022-10-16T21:21:03;21.80;99.90
23051;DHT22;11693;51.358;12.410;2022-10-16T21:23:30;21.80;99.90
23051;DHT22;11693;51.358;12.410;2022-10-16T21:25:57;21.80;99.90
23051;DHT22;11693;51.358;12.410;2022-10-16T21:28:23;21.80;99.90
23051;DHT22;11693;51.358;12.410;2022-10-16T21:30:49;21.80;99.90
23051;DHT22;11693;51.358;12.410;2022-10-16T21:33:14;21.80;99.90
23051;DHT22;11693;51.358;12.410;2022-10-16T21:35:40;21.70;99.90
23051;DHT22;11693;51.358;12.410;2022-10-16T21:38:05;21.70;99.90
23051;DHT22;11693;51.358;12.410;2022-10-16T21:40:32;21.60;99.90
23051;DHT22;11693;51.358;12.410;2022-10-16T21:42:58;21.60;99.90
23051;DHT22;11693;51.358;12.410;2022-10-16T21:45:24;21.60;99.90
23051;DHT22;11693;51.358;12.410;2022-10-16T21:47:50;21.70;99.90
23051;DHT22;11693;51.358;12.410;2022-10-16T21:50:15;21.60;99.90
23051;DHT22;11693;51.358;12.410;2022-10-16T21:52:41;21.60;99.90
23051;DHT22;11693;51.358;12.410;2022-10-16T21:55:07;21.50;99.90
23051;DHT22;11693;51.358;12.410;2022-10-16T21:57:33;21.50;99.90
23051;DHT22;11693;51.358;12.410;2022-10-16T21:59:58;21.60;99.90
23051;DHT22;11693;51.358;12.410;2022-10-16T22:02:24;21.60;99.90
23051;DHT22;11693;51.358;12.410;2022-10-16T22:04:50;21.60;99.90
23051;DHT22;11693;51.358;12.410;2022-10-16T22:07:15;21.60;99.90
23051;DHT22;11693;51.358;12.410;2022-10-16T22:09:41;21.50;99.90
23051;DHT22;11693;51.358;12.410;2022-10-16T22:12:06;21.30;99.90
23051;DHT22;11693;51.358;12.410;2022-10-16T22:14:32;21.30;99.90
23051;DHT22;11693;51.358;12.410;2022-10-16T22:16:57;21.30;99.90
23051;DHT22;11693;51.358;12.410;2022-10-16T22:19:23;21.30;99.90
23051;DHT22;11693;51.358;12.410;2022-10-16T22:21:53;21.40;99.90
23051;DHT22;11693;51.358;12.410;2022-10-16T22:24:22;21.40;99.90
23051;DHT22;11693;51.358;12.410;2022-10-16T22:26:48;21.50;99.90
23051;DHT22;11693;51.358;12.410;2022-10-16T22:29:14;21.60;99.90
23051;DHT22;11693;51.358;12.410;2022-10-16T22:31:40;21.50;99.90
23051;DHT22;11693;51.358;12.410;2022-10-16T22:34:06;21.40;99.90
23051;DHT22;11693;51.358;12.410;2022-10-16T22:36:32;21.40;99.90
23051;DHT22;11693;51.358;12.410;2022-10-16T22:38:58;21.30;99.90
23051;DHT22;11693;51.358;12.410;2022-10-16T22:41:24;21.10;99.90
23051;DHT22;11693;51.358;12.410;2022-10-16T22:43:50;21.10;99.90
23051;DHT22;11693;51.358;12.410;2022-10-16T22:46:22;21.00;99.90
23051;DHT22;11693;51.358;12.410;2022-10-16T22:48:47;21.00;99.90
23051;DHT22;11693;51.358;12.410;2022-10-16T22:51:13;20.90;99.90
23051;DHT22;11693;51.358;12.410;2022-10-16T22:53:40;20.90;99.90
23051;DHT22;11693;51.358;12.410;2022-10-16T22:56:06;20.80;99.90
23051;DHT22;11693;51.358;12.410;2022-10-16T22:58:31;20.80;99.90
23051;DHT22;11693;51.358;12.410;2022-10-16T23:00:57;20.80;99.90
23051;DHT22;11693;51.358;12.410;2022-10-16T23:03:23;20.90;99.90
23051;DHT22;11693;51.358;12.410;2022-10-16T23:05:49;20.70;99.90
23051;DHT22;11693;51.358;12.410;2022-10-16T23:08:15;20.70;99.90
23051;DHT22;11693;51.358;12.410;2022-10-16T23:10:43;20.70;99.90
23051;DHT22;11693;51.358;12.410;2022-10-16T23:13:10;20.60;99.90
23051;DHT22;11693;51.358;12.410;2022-10-16T23:15:40;20.70;99.90
23051;DHT22;11693;51.358;12.410;2022-10-16T23:18:06;20.60;99.90
23051;DHT22;11693;51.358;12.410;2022-10-16T23:20:32;20.50;99.90
23051;DHT22;11693;51.358;12.410;2022-10-16T23:22:58;20.40;99.90
23051;DHT22;11693;51.358;12.410;2022-10-16T23:25:23;20.40;99.90
23051;DHT22;11693;51.358;12.410;2022-10-16T23:27:52;20.40;99.90
23051;DHT22;11693;51.358;12.410;2022-10-16T23:30:17;20.30;99.90
23051;DHT22;11693;51.358;12.410;2022-10-16T23:32:43;20.30;99.90
23051;DHT22;11693;51.358;12.410;2022-10-16T23:35:08;20.30;99.90
23051;DHT22;11693;51.358;12.410;2022-10-16T23:37:34;20.30;99.90
23051;DHT22;11693;51.358;12.410;2022-10-16T23:39:59;20.20;99.90
23051;DHT22;11693;51.358;12.410;2022-10-16T23:42:25;20.20;99.90
23051;DHT22;11693;51.358;12.410;2022-10-16T23:44:50;20.30;99.90
23051;DHT22;11693;51.358;12.410;2022-10-16T23:47:16;20.20;99.90
23051;DHT22;11693;51.358;12.410;2022-10-16T23:49:42;20.20;99.90
23051;DHT22;11693;51.358;12.410;2022-10-16T23:52:07;20.20;99.90
23051;DHT22;11693;51.358;12.410;2022-10-16T23:54:33;20.30;99.90
23051;DHT22;11693;51.358;12.410;2022-10-16T23:56:58;20.10;99.90
23051;DHT22;11693;51.358;12.410;2022-10-16T23:59:24;20.10;99.90
